createdAt,value
2017-09-06T00:00:59.738Z,77.7
2017-09-06T00:02:00.675Z,77.6
2017-09-06T00:03:01.477Z,77.8
2017-09-06T00:04:02.212Z,77.4
2017-09-06T00:05:02.937Z,77.5
2017-09-06T00:06:03.764Z,77.4
2017-09-06T00:07:04.775Z,77.5
2017-09-06T00:08:05.709Z,77.3
2017-09-06T00:09:06.434Z,77.7
2017-09-06T00:10:07.381Z,77.4
2017-09-06T00:11:08.560Z,77.4
2017-09-06T00:12:09.458Z,77.0
2017-09-06T00:13:10.239Z,77.0
2017-09-06T00:14:10.959Z,77.0
2017-09-06T00:15:11.844Z,77.0
2017-09-06T00:16:12.976Z,77.0
2017-09-06T00:17:13.632Z,77.6
2017-09-06T00:19:30.562Z,77.0
2017-09-06T00:20:31.303Z,77.2
2017-09-06T00:21:32.795Z,77.3
2017-09-06T00:22:33.514Z,77.0
2017-09-06T00:23:34.167Z,76.5
2017-09-06T00:24:35.979Z,76.5
2017-09-06T00:25:36.728Z,76.1
2017-09-06T00:26:37.578Z,76.8
2017-09-06T00:27:38.274Z,76.9
2017-09-06T00:28:39.103Z,76.8
2017-09-06T00:29:40.039Z,76.6
2017-09-06T00:30:40.952Z,76.1
2017-09-06T00:31:42.187Z,76.2
2017-09-06T00:32:42.977Z,76.5
2017-09-06T00:33:43.666Z,76.8
2017-09-06T00:34:44.593Z,76.7
2017-09-06T00:35:45.406Z,76.9
2017-09-06T00:36:46.286Z,77.3
2017-09-06T00:37:46.988Z,77.2
2017-09-06T00:38:47.901Z,76.4
2017-09-06T00:39:48.837Z,76.6
2017-09-06T00:40:49.609Z,76.7
2017-09-06T00:41:50.389Z,76.5
2017-09-06T00:42:51.122Z,76.9
2017-09-06T00:43:51.993Z,76.7
2017-09-06T00:44:52.678Z,76.8
2017-09-06T00:45:53.387Z,76.7
2017-09-06T00:46:54.183Z,76.6
2017-09-06T00:47:54.994Z,77.1
2017-09-06T00:48:55.745Z,76.6
2017-09-06T00:49:56.550Z,76.6
2017-09-06T00:50:57.260Z,76.8
2017-09-06T00:51:57.957Z,76.3
2017-09-06T00:52:58.787Z,76.7
2017-09-06T00:53:59.552Z,76.7
2017-09-06T00:55:00.274Z,76.8
2017-09-06T00:56:01.061Z,75.7
2017-09-06T00:57:01.766Z,76.3
2017-09-06T00:58:02.487Z,77.1
2017-09-06T00:59:03.297Z,76.7
2017-09-06T01:00:04.006Z,76.5
2017-09-06T01:01:04.775Z,76.1
2017-09-06T01:02:05.480Z,76.2
2017-09-06T01:03:06.225Z,77.0
2017-09-06T01:04:06.993Z,77.0
2017-09-06T01:05:07.773Z,76.7
2017-09-06T01:06:08.548Z,76.8
2017-09-06T01:07:09.318Z,76.9
2017-09-06T01:08:10.051Z,77.0
2017-09-06T01:09:10.843Z,76.9
2017-09-06T01:10:11.636Z,77.1
2017-09-06T01:11:12.393Z,77.0
2017-09-06T01:12:13.274Z,76.9
2017-09-06T01:13:14.011Z,77.1
2017-09-06T01:14:14.924Z,76.8
2017-09-06T01:15:15.613Z,77.1
2017-09-06T01:16:16.306Z,77.3
2017-09-06T01:17:17.054Z,76.9
2017-09-06T01:18:17.784Z,77.2
2017-09-06T01:19:18.712Z,76.4
2017-09-06T01:20:19.426Z,77.1
2017-09-06T01:21:20.172Z,76.9
2017-09-06T01:22:21.033Z,77.2
2017-09-06T01:23:21.688Z,76.8
2017-09-06T01:24:22.439Z,76.7
2017-09-06T01:25:23.200Z,76.9
2017-09-06T01:26:24.078Z,76.9
2017-09-06T01:27:24.748Z,76.5
2017-09-06T01:28:25.479Z,76.9
2017-09-06T01:29:26.234Z,77.1
2017-09-06T01:30:26.990Z,77.1
2017-09-06T01:31:28.268Z,77.4
2017-09-06T01:32:28.964Z,77.4
2017-09-06T01:33:29.641Z,77.3
2017-09-06T01:34:30.387Z,77.1
2017-09-06T01:35:31.142Z,77.3
2017-09-06T01:36:31.916Z,77.6
2017-09-06T01:37:32.705Z,76.9
2017-09-06T01:38:33.400Z,77.5
2017-09-06T01:39:34.185Z,77.6
2017-09-06T01:40:34.962Z,77.6
2017-09-06T01:41:35.657Z,77.4
2017-09-06T01:42:36.477Z,77.4
2017-09-06T01:43:37.169Z,77.5
2017-09-06T01:44:37.860Z,77.5
2017-09-06T01:45:38.584Z,77.6
2017-09-06T01:46:39.270Z,77.6
2017-09-06T01:47:40.034Z,77.6
2017-09-06T01:48:40.828Z,77.6
2017-09-06T01:49:41.624Z,77.1
2017-09-06T01:50:42.358Z,77.3
2017-09-06T01:51:43.176Z,77.0
2017-09-06T01:52:43.938Z,76.9
2017-09-06T01:53:44.663Z,77.2
2017-09-06T01:54:45.510Z,77.3
2017-09-06T01:55:46.214Z,77.3
2017-09-06T01:56:47.046Z,77.0
2017-09-06T01:57:47.823Z,77.0
2017-09-06T01:58:48.587Z,76.8
2017-09-06T01:59:49.874Z,76.9
2017-09-06T02:00:50.586Z,76.7
2017-09-06T02:01:51.300Z,76.7
2017-09-06T02:02:52.004Z,77.1
2017-09-06T02:03:52.742Z,77.3
2017-09-06T02:04:53.471Z,77.0
2017-09-06T02:05:54.241Z,76.5
2017-09-06T02:06:54.962Z,76.5
2017-09-06T02:07:55.703Z,77.0
2017-09-06T02:08:56.629Z,77.0
2017-09-06T02:09:57.433Z,76.4
2017-09-06T02:10:58.157Z,76.1
2017-09-06T02:11:58.891Z,76.5
2017-09-06T02:12:59.611Z,76.6
2017-09-06T02:14:00.368Z,76.6
2017-09-06T02:15:01.202Z,77.2
2017-09-06T02:16:02.017Z,76.9
2017-09-06T02:17:02.714Z,76.9
2017-09-06T02:18:03.525Z,76.1
2017-09-06T02:19:04.218Z,76.9
2017-09-06T02:20:04.934Z,76.1
2017-09-06T02:21:05.624Z,76.1
2017-09-06T02:22:06.435Z,76.4
2017-09-06T02:23:07.780Z,76.4
2017-09-06T02:24:08.740Z,76.0
2017-09-06T02:25:09.519Z,77.1
2017-09-06T02:26:10.198Z,75.9
2017-09-06T02:27:10.962Z,76.2
2017-09-06T02:28:11.636Z,76.8
2017-09-06T02:29:12.507Z,76.2
2017-09-06T02:30:13.335Z,76.6
2017-09-06T02:31:14.019Z,75.9
2017-09-06T02:32:15.075Z,76.0
2017-09-06T02:33:15.808Z,76.7
2017-09-06T02:34:16.514Z,76.9
2017-09-06T02:35:17.301Z,76.3
2017-09-06T02:36:18.071Z,76.3
2017-09-06T02:37:18.850Z,76.4
2017-09-06T02:38:19.538Z,77.0
2017-09-06T02:39:20.301Z,76.3
2017-09-06T02:40:21.044Z,76.6
2017-09-06T02:41:21.769Z,76.5
2017-09-06T02:42:22.476Z,75.7
2017-09-06T02:43:23.265Z,75.9
2017-09-06T02:44:24.016Z,76.4
2017-09-06T02:45:25.003Z,76.3
2017-09-06T02:46:25.715Z,75.9
2017-09-06T02:47:26.603Z,75.6
2017-09-06T02:48:28.791Z,76.2
2017-09-06T02:49:29.507Z,75.9
2017-09-06T02:50:30.212Z,76.1
2017-09-06T02:51:30.926Z,76.1
2017-09-06T02:52:31.704Z,76.2
2017-09-06T02:53:32.456Z,76.5
2017-09-06T02:54:33.178Z,76.1
2017-09-06T02:55:33.963Z,76.3
2017-09-06T02:56:34.737Z,76.1
2017-09-06T02:57:35.451Z,76.5
2017-09-06T02:58:36.203Z,76.4
2017-09-06T02:59:36.943Z,76.7
2017-09-06T03:00:37.812Z,76.8
2017-09-06T03:01:38.589Z,76.9
2017-09-06T03:02:39.327Z,77.1
2017-09-06T03:03:40.116Z,77.1
2017-09-06T03:04:40.847Z,77.5
2017-09-06T03:05:41.616Z,77.3
2017-09-06T03:06:42.323Z,77.6
2017-09-06T03:07:43.157Z,77.6
2017-09-06T03:08:43.871Z,77.6
2017-09-06T03:09:44.610Z,77.3
2017-09-06T03:10:45.468Z,77.6
2017-09-06T03:11:46.239Z,77.8
2017-09-06T03:12:46.969Z,77.7
2017-09-06T03:13:47.671Z,77.8
2017-09-06T03:14:48.435Z,77.6
2017-09-06T03:15:49.187Z,78.0
2017-09-06T03:16:49.980Z,77.7
2017-09-06T03:17:50.681Z,77.5
2017-09-06T03:18:51.383Z,77.6
2017-09-06T03:19:52.239Z,77.7
2017-09-06T03:20:53.026Z,78.0
2017-09-06T03:21:53.729Z,77.8
2017-09-06T03:22:54.517Z,77.9
2017-09-06T03:23:55.160Z,77.7
2017-09-06T03:24:55.908Z,77.5
2017-09-06T03:25:56.653Z,77.6
2017-09-06T03:26:57.375Z,77.8
2017-09-06T03:27:58.108Z,78.0
2017-09-06T03:28:58.841Z,77.7
2017-09-06T03:29:59.593Z,77.6
2017-09-06T03:31:00.396Z,78.0
2017-09-06T03:32:01.104Z,77.4
2017-09-06T03:33:01.816Z,77.4
2017-09-06T03:34:02.575Z,77.7
2017-09-06T03:35:03.328Z,77.4
2017-09-06T03:36:04.085Z,77.7
2017-09-06T03:37:04.764Z,77.2
2017-09-06T03:38:05.489Z,77.4
2017-09-06T03:39:06.516Z,77.7
2017-09-06T03:40:07.290Z,77.4
2017-09-06T03:41:08.017Z,77.3
2017-09-06T03:42:08.738Z,77.5
2017-09-06T03:43:09.455Z,77.2
2017-09-06T03:44:10.247Z,77.4
2017-09-06T03:45:10.933Z,77.6
2017-09-06T03:46:11.735Z,77.1
2017-09-06T03:47:12.436Z,77.3
2017-09-06T03:48:13.184Z,76.9
2017-09-06T03:49:13.946Z,77.2
2017-09-06T03:50:14.752Z,77.3
2017-09-06T03:51:15.416Z,77.0
2017-09-06T03:52:16.136Z,76.5
2017-09-06T03:53:16.921Z,77.0
2017-09-06T03:54:17.639Z,77.0
2017-09-06T03:55:18.388Z,77.3
2017-09-06T03:56:19.122Z,77.7
2017-09-06T03:57:19.857Z,77.6
2017-09-06T03:58:20.628Z,77.3
2017-09-06T03:59:21.338Z,77.2
2017-09-06T04:00:22.175Z,77.4
2017-09-06T04:01:22.925Z,77.6
2017-09-06T04:02:23.635Z,77.4
2017-09-06T04:03:24.440Z,77.3
2017-09-06T04:04:25.161Z,77.8
2017-09-06T04:05:25.979Z,78.0
2017-09-06T04:06:26.743Z,78.1
2017-09-06T04:07:27.474Z,78.0
2017-09-06T04:08:28.213Z,77.6
2017-09-06T04:09:28.951Z,78.0
2017-09-06T04:10:29.671Z,77.8
2017-09-06T04:11:30.415Z,77.8
2017-09-06T04:12:31.156Z,77.8
2017-09-06T04:13:31.895Z,77.8
2017-09-06T04:14:32.630Z,77.7
2017-09-06T04:15:33.406Z,78.0
2017-09-06T04:16:34.141Z,77.9
2017-09-06T04:17:34.857Z,78.1
2017-09-06T04:18:35.641Z,78.1
2017-09-06T04:19:36.384Z,78.4
2017-09-06T04:20:37.213Z,78.7
2017-09-06T04:21:38.062Z,78.4
2017-09-06T04:22:38.817Z,79.0
2017-09-06T04:23:39.566Z,78.4
2017-09-06T04:24:40.228Z,79.0
2017-09-06T04:25:40.992Z,79.0
2017-09-06T04:26:41.779Z,79.1
2017-09-06T04:27:42.485Z,79.3
2017-09-06T04:28:43.299Z,79.1
2017-09-06T04:29:43.943Z,79.1
2017-09-06T04:30:44.721Z,79.0
2017-09-06T04:31:45.486Z,78.9
2017-09-06T04:32:46.271Z,79.7
2017-09-06T04:33:47.030Z,79.6
2017-09-06T04:34:47.777Z,79.9
2017-09-06T04:35:48.480Z,79.7
2017-09-06T04:36:49.265Z,79.6
2017-09-06T04:37:50.028Z,79.2
2017-09-06T04:38:50.763Z,79.1
2017-09-06T04:39:51.492Z,78.9
2017-09-06T04:40:52.280Z,78.8
2017-09-06T04:41:53.034Z,79.0
2017-09-06T04:42:53.846Z,78.4
2017-09-06T04:43:54.530Z,78.8
2017-09-06T04:44:55.369Z,78.5
2017-09-06T04:45:56.217Z,79.1
2017-09-06T04:46:57.013Z,78.8
2017-09-06T04:47:57.862Z,78.6
2017-09-06T04:48:58.662Z,79.0
2017-09-06T04:49:59.414Z,78.6
2017-09-06T04:51:00.350Z,79.1
2017-09-06T04:52:01.471Z,79.0
2017-09-06T04:53:02.165Z,79.5
2017-09-06T04:54:02.928Z,79.0
2017-09-06T04:55:03.612Z,79.2
2017-09-06T04:56:04.368Z,79.5
2017-09-06T04:57:05.244Z,79.6
2017-09-06T04:58:06.001Z,79.5
2017-09-06T04:59:06.719Z,79.5
2017-09-06T05:00:07.447Z,79.9
2017-09-06T05:01:08.668Z,79.8
2017-09-06T05:02:09.382Z,79.5
2017-09-06T05:03:10.375Z,79.7
2017-09-06T05:04:11.061Z,80.0
2017-09-06T05:05:12.071Z,79.6
2017-09-06T05:06:12.792Z,80.0
2017-09-06T05:07:13.555Z,79.9
2017-09-06T05:08:14.308Z,79.6
2017-09-06T05:09:14.997Z,79.4
2017-09-06T05:10:17.369Z,79.9
2017-09-06T05:11:18.135Z,80.1
2017-09-06T05:12:18.887Z,79.8
2017-09-06T05:13:19.703Z,79.7
2017-09-06T05:14:20.768Z,79.9
2017-09-06T05:15:21.883Z,79.2
2017-09-06T05:16:22.574Z,79.7
2017-09-06T05:17:23.877Z,79.5
2017-09-06T05:18:24.599Z,79.9
2017-09-06T05:19:25.801Z,80.0
2017-09-06T05:20:26.535Z,79.7
2017-09-06T05:21:27.349Z,79.4
2017-09-06T05:22:28.211Z,79.7
2017-09-06T05:23:28.911Z,80.1
2017-09-06T06:02:26.138Z,81.8
2017-09-06T06:56:07.691Z,77.3
2017-09-06T07:19:24.581Z,76.6
2017-09-06T07:51:01.947Z,59.4
2017-09-06T08:04:11.437Z,44.6
2017-09-06T08:06:13.133Z,44.9
2017-09-06T08:07:14.041Z,44.0
2017-09-06T08:38:36.864Z,49.8
2017-09-06T09:52:29.610Z,61.0
2017-09-06T10:00:50.495Z,60.9
2017-09-06T10:01:51.522Z,60.1
2017-09-06T10:37:32.107Z,60.0
2017-09-06T10:38:33.057Z,59.9
2017-09-06T10:41:35.805Z,59.0
2017-09-06T10:46:39.994Z,57.6
2017-09-06T10:54:46.065Z,56.0
2017-09-06T10:57:48.336Z,57.0
2017-09-06T11:20:04.326Z,57.9
2017-09-06T11:21:05.228Z,56.8
2017-09-06T11:26:08.997Z,55.5
2017-09-06T11:36:16.640Z,57.7
2017-09-06T11:39:19.070Z,56.4
2017-09-06T11:54:30.109Z,56.2
2017-09-06T11:56:31.870Z,57.6
2017-09-06T11:57:32.763Z,57.5
2017-09-06T12:14:59.895Z,57.2
2017-09-06T12:27:09.102Z,55.7
2017-09-06T12:28:10.131Z,55.5
2017-09-06T12:33:14.029Z,55.0
2017-09-06T13:08:40.505Z,61.7
2017-09-06T13:11:43.212Z,63.8
2017-09-06T13:36:15.357Z,83.3
2017-09-06T13:44:21.363Z,86.8
2017-09-06T13:54:43.713Z,84.0
2017-09-06T14:02:49.670Z,80.9
2017-09-06T14:07:53.496Z,79.7
2017-09-06T14:50:24.619Z,74.5
2017-09-06T14:56:29.178Z,74.2
2017-09-06T15:18:45.879Z,68.0
2017-09-06T15:23:49.767Z,68.9
2017-09-06T15:35:58.698Z,66.1
2017-09-06T15:42:03.298Z,66.8
2017-09-06T15:51:10.061Z,66.2
2017-09-06T15:52:10.953Z,64.9
2017-09-06T15:57:14.949Z,66.5
2017-09-06T16:07:22.524Z,66.7
2017-09-06T16:38:32.669Z,62.6
2017-09-06T17:26:35.358Z,59.5
2017-09-06T17:33:40.685Z,60.2
2017-09-06T17:37:43.769Z,62.3
2017-09-06T17:44:48.914Z,61.8
2017-09-06T17:49:52.804Z,62.7
2017-09-06T17:51:54.611Z,60.5
2017-09-06T17:52:55.882Z,61.8
2017-09-06T18:03:04.116Z,62.3
2017-09-06T18:04:05.003Z,62.3
2017-09-06T18:33:27.159Z,64.1
2017-09-06T18:36:30.022Z,64.5
2017-09-06T18:39:32.361Z,63.9
2017-09-06T18:41:33.896Z,64.2
2017-09-06T18:47:38.245Z,66.7
2017-09-06T18:51:41.468Z,68.3
2017-09-06T18:57:45.916Z,68.9
2017-09-06T18:58:47.004Z,68.7
2017-09-06T19:01:49.426Z,68.6
2017-09-06T19:09:55.392Z,69.4
2017-09-06T19:11:57.065Z,69.0
2017-09-06T19:18:01.484Z,64.0
2017-09-06T19:22:04.374Z,67.3
2017-09-06T19:25:06.843Z,71.8
2017-09-06T19:29:24.793Z,72.0
2017-09-06T19:32:27.153Z,73.6
2017-09-06T19:39:32.401Z,74.7
2017-09-06T19:40:33.680Z,72.6
2017-09-06T19:56:45.613Z,76.1
2017-09-06T20:15:14.234Z,83.3
2017-09-06T20:21:19.610Z,82.4
2017-09-06T20:26:38.501Z,81.8
2017-09-06T20:32:44.031Z,82.2
2017-09-06T20:49:56.431Z,83.4
2017-09-06T20:51:57.940Z,82.7
2017-09-06T20:52:59.086Z,82.6
2017-09-06T20:53:59.911Z,82.8
2017-09-06T20:55:00.750Z,83.0
2017-09-06T20:56:01.533Z,83.3
2017-09-06T20:57:02.216Z,83.3
2017-09-06T20:58:03.081Z,81.9
2017-09-06T20:59:03.799Z,82.3
2017-09-06T21:00:04.606Z,82.7
2017-09-06T21:01:05.326Z,82.7
2017-09-06T21:02:06.057Z,83.0
2017-09-06T21:03:06.749Z,82.7
2017-09-06T21:04:07.490Z,80.8
2017-09-06T21:05:08.347Z,81.4
2017-09-06T21:06:09.066Z,82.5
2017-09-06T21:07:09.899Z,82.6
2017-09-06T21:08:10.715Z,82.3
2017-09-06T21:09:11.481Z,82.2
2017-09-06T21:10:12.197Z,82.2
2017-09-06T21:11:12.960Z,82.8
2017-09-06T21:12:13.815Z,82.1
2017-09-06T21:13:14.639Z,82.2
2017-09-06T21:14:15.332Z,82.6
2017-09-06T21:15:16.200Z,82.8
2017-09-06T21:16:16.952Z,83.1
2017-09-06T21:17:17.706Z,81.5
2017-09-06T21:18:18.463Z,82.0
2017-09-06T21:19:19.131Z,80.8
2017-09-06T21:20:19.928Z,81.0
2017-09-06T21:21:20.667Z,80.7
2017-09-06T21:22:21.485Z,80.9
2017-09-06T21:23:22.168Z,81.6
2017-09-06T21:24:22.879Z,81.5
2017-09-06T21:25:23.985Z,81.7
2017-09-06T21:26:24.640Z,82.8
2017-09-06T21:27:25.478Z,83.5
2017-09-06T21:28:26.175Z,83.9
2017-09-06T21:29:26.885Z,83.6
2017-09-06T21:30:27.581Z,83.5
2017-09-06T21:31:28.520Z,83.7
2017-09-06T21:32:29.420Z,84.8
2017-09-06T21:33:30.315Z,84.8
2017-09-06T21:34:31.092Z,84.3
2017-09-06T21:35:31.807Z,84.0
2017-09-06T21:36:32.545Z,83.5
2017-09-06T21:37:33.318Z,83.7
2017-09-06T21:38:34.132Z,82.4
2017-09-06T21:39:35.640Z,82.7
2017-09-06T21:40:36.366Z,81.4
2017-09-06T21:41:37.086Z,81.3
2017-09-06T21:42:37.909Z,81.4
2017-09-06T21:43:39.428Z,81.5
2017-09-06T21:44:40.439Z,82.9
2017-09-06T21:45:41.446Z,82.5
2017-09-06T21:46:43.011Z,83.0
2017-09-06T21:47:44.045Z,81.8
2017-09-06T21:48:44.862Z,82.4
2017-09-06T21:49:45.545Z,82.2
2017-09-06T21:50:46.377Z,81.7
2017-09-06T21:51:47.245Z,79.7
2017-09-06T21:52:48.101Z,79.7
2017-09-06T21:53:48.848Z,78.8
2017-09-06T21:54:49.945Z,78.6
2017-09-06T21:55:51.088Z,78.6
2017-09-06T21:56:51.858Z,79.4
2017-09-06T21:57:52.966Z,80.6
2017-09-06T21:58:54.577Z,82.6
2017-09-06T21:59:55.502Z,82.9
2017-09-06T22:00:56.539Z,83.1
2017-09-06T22:01:57.301Z,83.3
2017-09-06T22:02:58.084Z,83.1
2017-09-06T22:03:59.309Z,82.0
2017-09-06T22:05:00.117Z,81.8
2017-09-06T22:06:00.898Z,82.0
2017-09-06T22:07:03.411Z,82.7
2017-09-06T22:08:04.198Z,83.5
2017-09-06T22:09:04.925Z,84.3
2017-09-06T22:10:06.417Z,84.0
2017-09-06T22:11:07.491Z,84.0
2017-09-06T22:12:08.217Z,83.5
2017-09-06T22:13:09.215Z,83.8
2017-09-06T22:14:10.053Z,83.8
2017-09-06T22:15:11.150Z,83.1
2017-09-06T22:16:12.099Z,82.1
2017-09-06T22:17:12.834Z,81.7
2017-09-06T22:18:13.967Z,83.2
2017-09-06T22:19:15.134Z,83.8
2017-09-06T22:20:15.955Z,85.0
2017-09-06T22:21:16.743Z,83.5
2017-09-06T22:22:17.524Z,83.3
2017-09-06T22:24:20.214Z,82.8
2017-09-06T22:25:20.961Z,82.5
2017-09-06T22:26:21.746Z,83.0
2017-09-06T22:27:22.509Z,82.4
2017-09-06T22:28:23.378Z,83.0
2017-09-06T22:29:24.267Z,83.1
2017-09-06T22:30:25.516Z,82.4
2017-09-06T22:31:26.447Z,81.6
2017-09-06T22:32:27.172Z,81.2
2017-09-06T22:33:28.671Z,81.5
2017-09-06T22:34:29.484Z,82.1
2017-09-06T22:35:30.264Z,82.1
2017-09-06T22:36:31.071Z,82.6
2017-09-06T22:37:31.991Z,82.6
2017-09-06T22:38:32.833Z,83.1
2017-09-06T22:39:34.304Z,83.1
2017-09-06T22:40:36.422Z,83.0
2017-09-06T22:41:37.226Z,83.0
2017-09-06T22:42:38.074Z,82.3
2017-09-06T22:43:38.818Z,82.7
2017-09-06T22:44:39.734Z,82.7
2017-09-06T22:45:40.471Z,83.3
2017-09-06T22:46:41.191Z,83.2
2017-09-06T22:47:41.907Z,82.8
2017-09-06T22:48:42.663Z,82.7
2017-09-06T22:49:43.643Z,82.8
2017-09-06T22:50:44.763Z,83.2
2017-09-06T22:51:45.553Z,82.6
2017-09-06T22:52:46.737Z,82.4
2017-09-06T22:53:47.592Z,82.5
2017-09-06T22:54:48.387Z,80.7
2017-09-06T22:55:49.415Z,82.2
2017-09-06T22:56:50.119Z,82.5
2017-09-06T22:57:50.994Z,82.2
2017-09-06T22:58:51.805Z,82.7
2017-09-06T22:59:53.237Z,82.0
2017-09-06T23:00:54.454Z,82.1
2017-09-06T23:01:55.525Z,82.5
2017-09-06T23:02:56.177Z,82.2
2017-09-06T23:03:57.280Z,83.0
2017-09-06T23:04:59.149Z,83.0
2017-09-06T23:06:01.327Z,81.8
2017-09-06T23:07:02.118Z,81.5
2017-09-06T23:08:02.823Z,81.8
2017-09-06T23:09:03.563Z,81.5
2017-09-06T23:10:04.346Z,82.3
2017-09-06T23:11:05.109Z,82.4
2017-09-06T23:12:06.673Z,83.8
2017-09-06T23:13:07.837Z,84.2
2017-09-06T23:14:08.495Z,84.2
2017-09-06T23:15:09.437Z,81.3
2017-09-06T23:16:10.559Z,82.2
2017-09-06T23:17:11.238Z,82.9
2017-09-06T23:18:12.041Z,84.1
2017-09-06T23:19:12.786Z,84.2
2017-09-06T23:20:13.510Z,83.8
2017-09-06T23:21:14.343Z,83.0
2017-09-06T23:22:15.407Z,83.1
2017-09-06T23:23:16.318Z,82.8
2017-09-06T23:24:16.997Z,82.4
2017-09-06T23:25:17.853Z,80.4
2017-09-06T23:26:18.688Z,80.8
2017-09-06T23:27:19.372Z,81.6
2017-09-06T23:28:20.097Z,82.6
2017-09-06T23:29:20.845Z,80.9
2017-09-06T23:30:21.784Z,78.6
2017-09-06T23:31:22.468Z,79.6
2017-09-06T23:32:23.228Z,81.1
2017-09-06T23:33:24.648Z,80.8
2017-09-06T23:34:25.305Z,81.9
2017-09-06T23:35:26.068Z,80.7
2017-09-06T23:36:26.878Z,80.3
2017-09-06T23:37:27.591Z,81.6
2017-09-06T23:38:28.316Z,81.3
2017-09-06T23:39:29.042Z,80.2
2017-09-06T23:40:29.851Z,81.3
2017-09-06T23:41:30.587Z,81.9
2017-09-06T23:42:31.280Z,82.4
2017-09-06T23:43:32.025Z,82.3
2017-09-06T23:44:32.729Z,83.0
2017-09-06T23:45:33.462Z,83.3
2017-09-06T23:46:34.211Z,82.8
2017-09-06T23:47:35.001Z,82.4
2017-09-06T23:48:35.776Z,82.2
2017-09-06T23:49:36.740Z,82.6
2017-09-06T23:50:37.414Z,82.2
2017-09-06T23:51:38.127Z,82.5
2017-09-06T23:52:38.841Z,81.4
2017-09-06T23:53:39.698Z,81.3
2017-09-06T23:54:40.418Z,81.7
2017-09-06T23:55:41.147Z,81.7
2017-09-06T23:56:41.993Z,81.8
2017-09-06T23:57:42.807Z,81.7
2017-09-06T23:58:43.527Z,81.5
2017-09-06T23:59:44.286Z,81.1
